Terminal Aerodrome Forecast
Issued by NWS Mt. Holly, NJ

Current Version | Previous Version | Text Only | Print | Product List | Glossary On
Versions: 1 2 3 4 5 6 7 8 9 10 11 12 13 14 15 16 17 18 19 20 21 22
000
FTUS41 KPHI 232100 AAA
TAFPHL
TAF AMD
KPHL 232103Z 2321/2424 31021G36KT P6SM BKN050
      TEMPO 2321/2324 SCT050
     FM240000 31015G25KT P6SM SKC
     FM240500 30015KT P6SM SKC
     FM241300 32018G28KT P6SM SKC
     FM242300 31015KT P6SM SKC=

USA.gov is the U.S. government's official web portal to all federal, state and local government web resources and services.